Time;durP1;ratioP1;P1;durP2;ratioP2;P2;SDS_P1;SDS_P2;PMS_P1;PMS_P2;Temp;Humidity;BMP_temperature;BMP_pressure;BME280_temperature;BME280_humidity;BME280_pressure;Samples;Min_cycle;Max_cycle;Signal;HPM_P1;HPM_P2
2022/07/28 00:01:35;;;;;;;0.20;0.20;;;22.50;57.80;;;;;;4192308;28;20048;-73
2022/07/28 00:03:57;;;;;;;0.10;0.10;;;22.50;57.70;;;;;;4175478;28;20052;-73
2022/07/28 00:06:19;;;;;;;0.00;0.00;;;22.50;57.80;;;;;;4177608;28;20053;-72
2022/07/28 00:08:41;;;;;;;0.00;0.00;;;22.50;57.90;;;;;;4191456;28;20076;-73
2022/07/28 00:11:05;;;;;;;0.00;0.00;;;22.50;57.80;;;;;;4174652;28;20049;-71
2022/07/28 00:13:26;;;;;;;0.10;0.10;;;22.50;57.90;;;;;;4193056;28;20731;-72
2022/07/28 00:15:48;;;;;;;0.00;0.00;;;22.40;57.80;;;;;;4192794;28;20056;-71
2022/07/28 00:18:11;;;;;;;0.00;0.00;;;22.40;58.60;;;;;;4193140;28;20045;-73
2022/07/28 00:20:33;;;;;;;0.00;0.00;;;22.40;57.90;;;;;;4192461;28;20055;-72
2022/07/28 00:22:55;;;;;;;0.00;0.00;;;22.40;57.90;;;;;;4188821;28;20451;-73
2022/07/28 00:25:17;;;;;;;0.00;0.00;;;22.40;57.90;;;;;;4176138;28;20049;-72
2022/07/28 00:27:40;;;;;;;0.00;0.00;;;22.40;57.90;;;;;;4176422;28;20062;-73
2022/07/28 00:30:03;;;;;;;0.00;0.00;;;22.40;58.00;;;;;;4176164;28;20453;-73
2022/07/28 00:32:25;;;;;;;0.00;0.00;;;22.40;57.90;;;;;;4178163;28;20072;-73
2022/07/28 00:34:47;;;;;;;0.00;0.00;;;22.40;58.00;;;;;;4175628;28;20136;-73
2022/07/28 00:37:09;;;;;;;0.00;0.00;;;22.40;58.10;;;;;;4190882;28;20048;-73
2022/07/28 00:39:32;;;;;;;0.35;0.35;;;22.40;58.10;;;;;;4192309;28;20440;-73
2022/07/28 00:41:54;;;;;;;0.00;0.00;;;22.40;58.10;;;;;;4192221;28;20056;-74
2022/07/28 00:44:18;;;;;;;0.00;0.00;;;22.30;58.10;;;;;;4192244;28;20044;-72
2022/07/28 00:46:40;;;;;;;0.00;0.00;;;22.40;58.10;;;;;;4189628;28;20551;-72
2022/07/28 00:49:02;;;;;;;0.00;0.00;;;22.30;58.10;;;;;;4175456;28;20057;-64
2022/07/28 00:51:26;;;;;;;0.00;0.00;;;22.30;58.10;;;;;;4176294;28;20045;-63
2022/07/28 00:53:49;;;;;;;0.00;0.00;;;22.30;58.10;;;;;;4175669;28;20045;-64
2022/07/28 00:56:10;;;;;;;0.00;0.00;;;22.30;58.10;;;;;;4190851;28;20075;-63
2022/07/28 00:58:34;;;;;;;0.00;0.00;;;22.30;58.10;;;;;;4177029;28;20128;-64
2022/07/28 01:00:58;;;;;;;0.15;0.15;;;22.30;58.20;;;;;;4190065;28;20052;-63
2022/07/28 01:03:21;;;;;;;0.00;0.00;;;22.30;58.10;;;;;;4175575;28;20094;-64
2022/07/28 01:05:53;;;;;;;0.00;0.00;;;22.30;58.20;;;;;;4191215;28;20064;-64
2022/07/28 01:08:23;;;;;;;0.00;0.00;;;22.30;58.20;;;;;;4191951;28;20127;-63
2022/07/28 01:10:56;;;;;;;0.00;0.00;;;22.30;58.20;;;;;;4190523;28;20052;-63
2022/07/28 01:13:28;;;;;;;0.00;0.00;;;22.30;58.20;;;;;;4175799;28;20049;-63
2022/07/28 01:16:00;;;;;;;2.53;0.95;;;22.30;58.30;;;;;;4177010;28;20455;-63
2022/07/28 01:18:26;;;;;;;0.00;0.00;;;22.30;58.30;;;;;;4173739;28;20060;-63
2022/07/28 01:20:52;;;;;;;0.00;0.00;;;22.20;58.20;;;;;;4157511;28;20065;-64
2022/07/28 01:23:44;;;;;;;0.00;0.00;;;22.20;58.20;;;;;;4173232;28;20048;-64
2022/07/28 01:26:13;;;;;;;;;;;22.20;58.20;;;;;;4158782;28;20054;-65
2022/07/28 01:28:49;;;;;;;0.05;0.05;;;22.20;58.20;;;;;;4191030;28;20367;-63
2022/07/28 01:31:19;;;;;;;0.00;0.00;;;22.20;58.30;;;;;;4191322;28;20051;-63
2022/07/28 01:33:46;;;;;;;0.00;0.00;;;22.20;58.30;;;;;;4190240;28;20056;-63
2022/07/28 01:36:11;;;;;;;0.00;0.00;;;22.20;58.30;;;;;;4191777;28;20037;-63
2022/07/28 01:38:36;;;;;;;0.00;0.00;;;22.20;58.40;;;;;;4191696;28;20484;-63
2022/07/28 01:40:59;;;;;;;0.00;0.00;;;22.10;58.40;;;;;;4191493;28;20135;-63
2022/07/28 01:43:24;;;;;;;0.43;0.43;;;22.10;58.40;;;;;;4191694;28;20140;-63
2022/07/28 01:45:47;;;;;;;0.00;0.00;;;22.10;58.40;;;;;;4191379;28;20048;-63
2022/07/28 01:48:12;;;;;;;0.00;0.00;;;22.10;58.40;;;;;;4191318;28;20067;-63
2022/07/28 01:50:36;;;;;;;0.00;0.00;;;22.10;58.40;;;;;;4194892;28;20158;-62
2022/07/28 01:52:58;;;;;;;0.00;0.00;;;22.10;58.40;;;;;;4193563;28;20070;-63
2022/07/28 01:55:23;;;;;;;0.73;0.65;;;22.10;58.50;;;;;;4194111;28;20053;-63
2022/07/28 01:57:47;;;;;;;0.00;0.00;;;22.10;58.50;;;;;;4194902;28;20056;-63
2022/07/28 02:00:12;;;;;;;0.00;0.00;;;22.10;58.50;;;;;;4194757;28;20059;-63
2022/07/28 02:02:37;;;;;;;0.00;0.00;;;22.10;58.60;;;;;;4194746;28;20048;-63
2022/07/28 02:05:02;;;;;;;0.00;0.00;;;22.00;58.60;;;;;;4188403;28;20044;-63
2022/07/28 02:07:26;;;;;;;0.00;0.00;;;22.00;58.70;;;;;;4177853;28;20072;-64
2022/07/28 02:09:48;;;;;;;0.00;0.00;;;22.00;58.60;;;;;;4177455;28;20056;-71
2022/07/28 02:12:13;;;;;;;0.00;0.00;;;22.00;58.60;;;;;;4179585;28;20514;-71
2022/07/28 02:14:37;;;;;;;0.00;0.00;;;22.00;58.60;;;;;;4178178;28;20064;-72
2022/07/28 02:17:03;;;;;;;0.00;0.00;;;22.00;58.60;;;;;;4161718;28;20057;-73
2022/07/28 02:19:27;;;;;;;0.00;0.00;;;22.00;58.70;;;;;;4161594;28;20110;-73
2022/07/28 02:21:52;;;;;;;0.00;0.00;;;22.00;58.70;;;;;;4176969;28;20139;-73
2022/07/28 02:24:16;;;;;;;0.00;0.00;;;22.00;59.40;;;;;;4177842;28;20041;-73
2022/07/28 02:26:45;;;;;;;0.00;0.00;;;22.00;58.70;;;;;;4192467;28;20055;-73
2022/07/28 02:29:11;;;;;;;0.00;0.00;;;22.00;58.80;;;;;;4194464;28;20125;-73
2022/07/28 02:32:01;;;;;;;0.90;0.90;;;22.00;58.80;;;;;;4194277;28;20491;-71
2022/07/28 02:34:26;;;;;;;0.13;0.13;;;22.00;58.80;;;;;;4194681;28;20424;-73
2022/07/28 02:36:54;;;;;;;0.00;0.00;;;21.90;58.80;;;;;;4192429;28;20455;-73
2022/07/28 02:39:21;;;;;;;0.00;0.00;;;22.00;58.90;;;;;;4194273;28;20399;-72
2022/07/28 02:41:44;;;;;;;0.00;0.00;;;21.90;58.80;;;;;;4194606;28;20058;-72
2022/07/28 02:44:13;;;;;;;0.00;0.00;;;21.90;58.90;;;;;;4192713;28;20044;-72
2022/07/28 02:46:41;;;;;;;0.00;0.00;;;21.90;58.90;;;;;;4193368;28;20052;-73
2022/07/28 02:49:09;;;;;;;0.00;0.00;;;21.90;58.90;;;;;;4193692;28;20387;-75
2022/07/28 02:51:33;;;;;;;0.00;0.00;;;21.90;58.90;;;;;;4194377;28;20048;-73
2022/07/28 02:53:58;;;;;;;0.25;0.22;;;21.90;59.00;;;;;;4193862;28;20056;-73
2022/07/28 02:56:22;;;;;;;0.00;0.00;;;21.90;59.00;;;;;;4194416;28;20064;-73
2022/07/28 02:58:46;;;;;;;0.00;0.00;;;21.90;59.00;;;;;;4193017;28;20094;-73
2022/07/28 03:01:09;;;;;;;0.00;0.00;;;21.90;59.00;;;;;;4192114;28;20052;-71
2022/07/28 03:03:34;;;;;;;0.43;0.43;;;21.90;59.00;;;;;;4180807;28;20049;-73
2022/07/28 03:06:00;;;;;;;0.00;0.00;;;21.90;59.00;;;;;;4192197;28;20412;-73
2022/07/28 03:08:24;;;;;;;0.00;0.00;;;21.90;59.00;;;;;;4180717;28;20053;-72
2022/07/28 03:10:49;;;;;;;0.00;0.00;;;21.80;59.00;;;;;;4176234;28;20842;-73
2022/07/28 03:13:13;;;;;;;0.10;0.10;;;21.80;59.00;;;;;;4174978;28;20052;-72
2022/07/28 03:15:38;;;;;;;0.00;0.00;;;21.90;59.00;;;;;;4174259;28;20041;-74
2022/07/28 03:18:03;;;;;;;0.00;0.00;;;21.80;59.00;;;;;;4167154;28;20416;-70
2022/07/28 03:20:25;;;;;;;0.00;0.00;;;21.80;59.00;;;;;;4175816;28;20480;-73
2022/07/28 03:22:48;;;;;;;0.00;0.00;;;21.80;59.10;;;;;;4176520;28;20052;-73
2022/07/28 03:25:17;;;;;;;0.00;0.00;;;21.80;59.10;;;;;;4176401;28;20053;-71
2022/07/28 03:27:46;;;;;;;0.00;0.00;;;21.80;59.10;;;;;;4191573;28;20049;-74
2022/07/28 03:30:13;;;;;;;0.00;0.00;;;21.80;59.10;;;;;;4193747;28;20048;-74
2022/07/28 03:32:41;;;;;;;0.00;0.00;;;21.80;59.10;;;;;;4192342;28;20450;-73
2022/07/28 03:35:06;;;;;;;0.10;0.10;;;21.80;59.20;;;;;;4188180;28;20064;-73
2022/07/28 03:37:37;;;;;;;0.30;0.30;;;21.80;59.20;;;;;;4192015;28;20058;-73
2022/07/28 03:40:03;;;;;;;0.35;0.35;;;21.80;59.20;;;;;;4194650;28;20052;-73
2022/07/28 03:42:27;;;;;;;0.43;0.43;;;21.80;59.30;;;;;;4193119;28;20044;-73
2022/07/28 03:44:52;;;;;;;0.00;0.00;;;21.70;59.20;;;;;;4192394;28;20113;-73
2022/07/28 03:47:15;;;;;;;0.00;0.00;;;21.80;59.30;;;;;;4193363;28;20431;-74
2022/07/28 03:49:37;;;;;;;0.00;0.00;;;21.70;59.30;;;;;;4193784;28;20402;-73
2022/07/28 03:51:59;;;;;;;0.00;0.00;;;21.70;59.30;;;;;;4193083;28;20055;-72
2022/07/28 03:54:21;;;;;;;0.00;0.00;;;21.70;59.30;;;;;;4193225;28;20559;-72
2022/07/28 03:56:44;;;;;;;0.00;0.00;;;21.70;59.40;;;;;;4193154;28;20094;-73
2022/07/28 03:59:06;;;;;;;0.00;0.00;;;21.70;59.40;;;;;;4193671;28;20099;-74
2022/07/28 04:01:29;;;;;;;0.00;0.00;;;21.70;59.50;;;;;;4191735;28;20061;-74
2022/07/28 04:03:51;;;;;;;0.00;0.00;;;21.70;59.40;;;;;;4192973;28;20139;-71
2022/07/28 04:06:13;;;;;;;0.00;0.00;;;21.70;59.40;;;;;;4192890;28;20098;-73
2022/07/28 04:08:36;;;;;;;0.00;0.00;;;21.70;59.50;;;;;;4192891;28;20053;-72
2022/07/28 04:10:58;;;;;;;0.00;0.00;;;21.70;59.50;;;;;;4192591;28;20078;-73
2022/07/28 04:13:20;;;;;;;0.00;0.00;;;21.70;59.50;;;;;;4192029;28;20127;-73
2022/07/28 04:15:43;;;;;;;0.00;0.00;;;21.70;59.50;;;;;;4193149;28;20059;-73
2022/07/28 04:18:07;;;;;;;0.00;0.00;;;21.70;59.50;;;;;;4192639;28;20131;-73
2022/07/28 04:20:29;;;;;;;0.00;0.00;;;21.70;59.60;;;;;;4193201;28;20125;-73
2022/07/28 04:22:51;;;;;;;0.00;0.00;;;21.60;59.60;;;;;;4192047;28;20133;-73
2022/07/28 04:25:14;;;;;;;0.00;0.00;;;21.60;59.60;;;;;;4192748;28;20487;-74
2022/07/28 04:27:36;;;;;;;0.00;0.00;;;21.60;59.60;;;;;;4192625;28;20571;-73
2022/07/28 04:29:59;;;;;;;0.00;0.00;;;21.70;59.70;;;;;;4192787;28;20045;-75
2022/07/28 04:32:21;;;;;;;0.00;0.00;;;21.60;59.60;;;;;;4192466;28;20066;-72
2022/07/28 04:34:44;;;;;;;0.00;0.00;;;21.60;59.70;;;;;;4192765;28;20048;-71
2022/07/28 04:37:07;;;;;;;0.00;0.00;;;21.60;60.10;;;;;;4192563;28;20437;-71
2022/07/28 04:39:29;;;;;;;0.00;0.00;;;21.70;60.30;;;;;;4176398;28;20696;-71
2022/07/28 04:41:51;;;;;;;0.00;0.00;;;21.70;60.20;;;;;;4176118;28;20061;-71
2022/07/28 04:44:15;;;;;;;0.00;0.00;;;21.70;60.10;;;;;;4178642;28;20162;-71
2022/07/28 04:46:37;;;;;;;0.00;0.00;;;21.60;60.90;;;;;;4174656;28;20144;-70
2022/07/28 04:49:00;;;;;;;0.00;0.00;;;21.60;60.00;;;;;;4176586;28;20106;-71
2022/07/28 04:51:24;;;;;;;0.00;0.00;;;21.70;60.10;;;;;;4176830;28;20285;-71
2022/07/28 04:53:46;;;;;;;0.10;0.10;;;21.60;60.10;;;;;;4192118;28;20067;-71
2022/07/28 04:56:08;;;;;;;0.00;0.00;;;21.60;60.10;;;;;;4191940;28;20058;-71
2022/07/28 04:58:30;;;;;;;0.00;0.00;;;21.60;60.20;;;;;;4190893;28;20430;-71
2022/07/28 05:00:52;;;;;;;0.00;0.00;;;21.60;60.20;;;;;;4190054;28;20056;-70
2022/07/28 05:03:14;;;;;;;0.57;0.57;;;21.60;60.30;;;;;;4191232;28;20106;-73
2022/07/28 05:05:36;;;;;;;0.00;0.00;;;21.60;60.30;;;;;;4185880;28;20057;-71
2022/07/28 05:08:00;;;;;;;0.00;0.00;;;21.60;60.30;;;;;;4174250;28;20123;-72
2022/07/28 05:10:22;;;;;;;0.00;0.00;;;21.60;60.40;;;;;;4188816;28;20055;-72
2022/07/28 05:12:46;;;;;;;0.00;0.00;;;21.60;60.40;;;;;;4192032;28;20052;-72
2022/07/28 05:15:09;;;;;;;0.00;0.00;;;21.60;60.50;;;;;;4183807;28;20095;-71
2022/07/28 05:17:31;;;;;;;0.00;0.00;;;21.60;60.50;;;;;;4158879;28;20071;-71
2022/07/28 05:19:54;;;;;;;0.00;0.00;;;21.60;60.50;;;;;;4182764;28;20565;-72
2022/07/28 05:22:16;;;;;;;0.00;0.00;;;21.60;60.60;;;;;;4183495;28;20044;-73
2022/07/28 05:24:40;;;;;;;0.00;0.00;;;21.60;60.70;;;;;;4191594;28;20049;-71
2022/07/28 05:27:02;;;;;;;0.00;0.00;;;21.60;60.70;;;;;;4191985;28;20047;-71
2022/07/28 05:29:24;;;;;;;0.00;0.00;;;21.60;61.60;;;;;;4191745;28;20052;-70
2022/07/28 05:31:47;;;;;;;0.00;0.00;;;21.60;60.70;;;;;;4191397;28;20060;-71
2022/07/28 05:34:09;;;;;;;0.00;0.00;;;21.50;60.60;;;;;;4191731;28;20494;-71
2022/07/28 05:36:31;;;;;;;0.00;0.00;;;21.60;60.60;;;;;;4191742;28;20044;-64
2022/07/28 05:38:53;;;;;;;0.00;0.00;;;21.60;60.60;;;;;;4191191;28;20059;-66
2022/07/28 05:41:18;;;;;;;0.00;0.00;;;21.50;60.50;;;;;;4192201;28;20048;-64
2022/07/28 05:43:40;;;;;;;0.00;0.00;;;21.60;60.60;;;;;;4191313;28;20376;-65
2022/07/28 05:46:02;;;;;;;0.00;0.00;;;21.50;60.50;;;;;;4191979;28;20475;-72
2022/07/28 05:48:24;;;;;;;0.00;0.00;;;21.50;60.50;;;;;;4191437;28;20445;-72
2022/07/28 05:50:46;;;;;;;0.10;0.10;;;21.50;60.60;;;;;;4173960;28;20147;-71
2022/07/28 05:53:09;;;;;;;0.00;0.00;;;21.60;60.60;;;;;;4189488;28;20044;-71
2022/07/28 05:55:31;;;;;;;0.00;0.00;;;21.50;60.60;;;;;;4191523;28;20036;-71
2022/07/28 05:57:54;;;;;;;0.00;0.00;;;21.50;60.60;;;;;;4189688;28;20117;-71
2022/07/28 06:00:18;;;;;;;0.35;0.35;;;21.50;60.60;;;;;;4192114;28;20139;-73
2022/07/28 06:02:40;;;;;;;0.00;0.00;;;21.50;60.70;;;;;;4191613;28;20111;-73
2022/07/28 06:05:05;;;;;;;0.00;0.00;;;21.50;60.70;;;;;;4192344;28;20142;-73
2022/07/28 06:07:27;;;;;;;0.00;0.00;;;21.50;60.70;;;;;;4199201;28;20045;-72
2022/07/28 06:10:05;;;;;;;0.00;0.00;;;21.50;60.70;;;;;;4176301;28;20063;-73
2022/07/28 06:12:27;;;;;;;0.00;0.00;;;21.50;60.90;;;;;;4193717;28;20149;-72
2022/07/28 06:14:50;;;;;;;0.00;0.00;;;21.50;60.90;;;;;;4191333;28;20060;-73
2022/07/28 06:17:13;;;;;;;0.00;0.00;;;21.50;61.30;;;;;;4178778;28;20480;-70
2022/07/28 06:19:35;;;;;;;0.00;0.00;;;21.50;61.00;;;;;;4178970;28;20098;-71
2022/07/28 06:21:57;;;;;;;0.00;0.00;;;21.50;61.00;;;;;;4188775;28;20068;-70
2022/07/28 06:24:19;;;;;;;0.35;0.35;;;21.50;61.00;;;;;;4187186;28;20380;-71
2022/07/28 06:26:42;;;;;;;0.00;0.00;;;21.50;61.10;;;;;;4189312;28;20060;-71
2022/07/28 06:29:06;;;;;;;0.00;0.00;;;21.50;61.10;;;;;;4187984;28;20055;-71
2022/07/28 06:31:29;;;;;;;0.00;0.00;;;21.50;61.10;;;;;;4157434;28;20123;-71
2022/07/28 06:33:51;;;;;;;0.00;0.00;;;21.50;61.10;;;;;;4188449;28;20059;-72
2022/07/28 06:36:13;;;;;;;1.55;0.80;;;21.50;61.10;;;;;;4189694;28;20053;-72
2022/07/28 06:38:36;;;;;;;0.00;0.00;;;21.50;61.10;;;;;;4191882;28;20048;-73
2022/07/28 06:40:59;;;;;;;0.10;0.10;;;21.50;61.20;;;;;;4190550;28;20048;-73
2022/07/28 06:43:21;;;;;;;0.55;0.55;;;21.50;61.20;;;;;;4192135;28;20566;-73
2022/07/28 06:45:44;;;;;;;0.73;0.73;;;21.50;61.30;;;;;;4191936;28;20075;-72
2022/07/28 06:48:08;;;;;;;0.20;0.20;;;21.50;61.20;;;;;;4191644;28;20377;-73
2022/07/28 06:50:30;;;;;;;0.00;0.00;;;21.50;61.20;;;;;;4191525;28;20056;-72
2022/07/28 06:52:52;;;;;;;0.00;0.00;;;21.50;61.20;;;;;;4191991;28;20419;-72
2022/07/28 06:55:15;;;;;;;0.00;0.00;;;21.50;61.20;;;;;;4191683;28;20465;-71
2022/07/28 06:57:40;;;;;;;0.00;0.00;;;21.50;61.20;;;;;;4192049;28;20518;-72
2022/07/28 07:00:03;;;;;;;0.70;0.52;;;21.50;61.20;;;;;;4189554;28;20048;-71
2022/07/28 07:02:25;;;;;;;0.00;0.00;;;21.50;61.20;;;;;;4191451;28;20087;-73
2022/07/28 07:04:51;;;;;;;0.00;0.00;;;21.50;61.10;;;;;;4189121;28;20099;-67
2022/07/28 07:07:13;;;;;;;0.08;0.08;;;21.50;61.20;;;;;;4191862;28;20147;-72
2022/07/28 07:09:39;;;;;;;0.00;0.00;;;21.50;61.30;;;;;;4190770;28;20121;-72
2022/07/28 07:12:01;;;;;;;0.00;0.00;;;21.40;61.40;;;;;;4191661;28;20131;-71
2022/07/28 07:14:23;;;;;;;0.00;0.00;;;21.40;61.20;;;;;;4190636;28;20106;-70
2022/07/28 07:16:45;;;;;;;0.00;0.00;;;21.40;62.30;;;;;;4191109;28;20075;-64
2022/07/28 07:19:10;;;;;;;0.00;0.00;;;21.40;62.50;;;;;;4191511;28;20141;-64
2022/07/28 07:21:38;;;;;;;0.00;0.00;;;21.40;61.60;;;;;;4191399;28;20487;-62
2022/07/28 07:24:00;;;;;;;0.10;0.10;;;21.40;61.70;;;;;;4188865;28;20101;-64
2022/07/28 07:26:23;;;;;;;0.05;0.05;;;21.30;61.70;;;;;;4191431;28;20075;-63
2022/07/28 07:28:45;;;;;;;0.00;0.00;;;21.30;61.80;;;;;;4188999;28;20052;-64
2022/07/28 07:31:07;;;;;;;0.00;0.00;;;21.30;61.80;;;;;;4191033;28;20110;-64
2022/07/28 07:33:29;;;;;;;0.00;0.00;;;21.30;61.80;;;;;;4189012;28;20049;-64
2022/07/28 07:35:52;;;;;;;0.00;0.00;;;21.30;61.80;;;;;;4170867;28;20470;-64
2022/07/28 07:38:15;;;;;;;0.00;0.00;;;21.30;61.90;;;;;;4191447;28;20056;-64
2022/07/28 07:40:38;;;;;;;0.25;0.25;;;21.40;62.00;;;;;;4189576;28;20045;-64
2022/07/28 07:43:00;;;;;;;0.00;0.00;;;21.30;61.90;;;;;;4190542;28;20066;-63
2022/07/28 07:45:22;;;;;;;0.00;0.00;;;21.30;61.90;;;;;;4188007;28;20066;-64
2022/07/28 07:47:44;;;;;;;0.00;0.00;;;21.30;62.00;;;;;;4190264;28;20632;-67
2022/07/28 07:50:07;;;;;;;0.00;0.00;;;21.40;62.00;;;;;;4190374;28;20102;-65
2022/07/28 07:52:29;;;;;;;0.32;0.32;;;21.40;62.00;;;;;;4190556;28;20052;-63
2022/07/28 07:54:52;;;;;;;0.00;0.00;;;21.40;62.00;;;;;;4190122;28;20052;-66
2022/07/28 07:57:14;;;;;;;0.08;0.08;;;21.40;62.00;;;;;;4189381;28;20397;-62
2022/07/28 07:59:37;;;;;;;0.00;0.00;;;21.40;62.10;;;;;;4173483;28;20155;-64
2022/07/28 08:01:59;;;;;;;0.00;0.00;;;21.40;62.00;;;;;;4174597;28;20049;-62
2022/07/28 08:04:22;;;;;;;0.65;0.32;;;21.40;62.00;;;;;;4189524;28;20060;-61
2022/07/28 08:06:46;;;;;;;2.20;0.63;;;21.40;62.30;;;;;;4189895;28;20056;-62
2022/07/28 08:09:08;;;;;;;3.10;0.47;;;21.40;62.50;;;;;;4190796;28;20052;-62
2022/07/28 08:11:31;;;;;;;0.43;0.43;;;21.50;62.80;;;;;;4189118;28;20048;-62
2022/07/28 08:13:53;;;;;;;0.00;0.00;;;21.40;62.80;;;;;;4158038;28;20550;-63
2022/07/28 08:16:15;;;;;;;0.00;0.00;;;21.40;62.90;;;;;;4174087;28;20048;-63
2022/07/28 08:18:38;;;;;;;0.00;0.00;;;21.40;63.10;;;;;;4174029;28;20133;-63
2022/07/28 08:21:00;;;;;;;0.00;0.00;;;21.50;63.30;;;;;;4173785;28;20408;-63
2022/07/28 08:23:22;;;;;;;0.00;0.00;;;21.50;63.40;;;;;;4190665;28;20050;-62
2022/07/28 08:25:47;;;;;;;0.00;0.00;;;21.50;63.30;;;;;;4190020;28;20045;-62
2022/07/28 08:28:11;;;;;;;0.90;0.90;;;21.50;63.20;;;;;;4188769;28;21076;-62
2022/07/28 08:30:33;;;;;;;0.00;0.00;;;21.50;63.00;;;;;;4187943;28;20141;-63
2022/07/28 08:32:55;;;;;;;0.00;0.00;;;21.50;62.70;;;;;;4190205;28;20060;-65
2022/07/28 08:35:18;;;;;;;2.83;1.63;;;21.50;62.80;;;;;;4189422;28;20055;-64
2022/07/28 08:37:54;;;;;;;0.00;0.00;;;21.60;62.80;;;;;;4189721;28;20068;-63
2022/07/28 08:40:17;;;;;;;0.28;0.28;;;21.60;62.70;;;;;;4189415;28;20082;-62
2022/07/28 08:42:48;;;;;;;1.65;1.55;;;21.60;62.40;;;;;;4189416;28;20067;-63
2022/07/28 08:45:13;;;;;;;0.00;0.00;;;21.60;61.50;;;;;;4189435;28;20052;-63
2022/07/28 08:47:35;;;;;;;0.00;0.00;;;21.60;61.90;;;;;;4190298;28;20045;-62
2022/07/28 08:50:23;;;;;;;0.00;0.00;;;21.60;61.20;;;;;;4173087;28;20048;-62
2022/07/28 08:52:47;;;;;;;0.00;0.00;;;21.60;60.90;;;;;;4172977;28;20064;-63
2022/07/28 08:55:10;;;;;;;0.00;0.00;;;21.60;60.50;;;;;;4183371;28;21890;-62
2022/07/28 08:57:40;;;;;;;0.47;0.47;;;21.60;60.90;;;;;;4187788;28;20048;-62
2022/07/28 09:00:03;;;;;;;0.00;0.00;;;21.60;61.20;;;;;;4189020;28;20048;-63
2022/07/28 09:02:27;;;;;;;1.02;0.38;;;21.60;60.60;;;;;;4188576;28;20147;-62
2022/07/28 09:04:50;;;;;;;0.08;0.08;;;21.60;60.60;;;;;;4189029;28;20130;-63
2022/07/28 09:07:13;;;;;;;0.00;0.00;;;21.60;60.10;;;;;;4188956;28;20106;-62
2022/07/28 09:09:35;;;;;;;0.00;0.00;;;21.60;60.00;;;;;;4189718;28;20060;-62
2022/07/28 09:11:57;;;;;;;0.05;0.05;;;21.60;60.10;;;;;;4189489;28;20140;-61
2022/07/28 09:14:19;;;;;;;0.98;0.38;;;21.70;60.20;;;;;;4189652;28;21709;-62
2022/07/28 09:16:42;;;;;;;0.10;0.10;;;21.70;59.60;;;;;;4188776;28;20058;-62
2022/07/28 09:19:05;;;;;;;0.00;0.00;;;21.70;59.90;;;;;;4188896;28;20059;-62
2022/07/28 09:21:27;;;;;;;0.00;0.00;;;21.70;59.80;;;;;;4189131;28;20052;-62
2022/07/28 09:23:50;;;;;;;0.00;0.00;;;21.70;59.50;;;;;;4188030;28;20048;-63
2022/07/28 09:26:14;;;;;;;0.00;0.00;;;21.70;59.20;;;;;;4188149;28;20064;-64
2022/07/28 09:28:47;;;;;;;0.00;0.00;;;21.70;58.90;;;;;;4188411;28;20052;-63
2022/07/28 09:31:09;;;;;;;0.00;0.00;;;21.70;58.90;;;;;;4187273;28;20052;-62
2022/07/28 09:33:31;;;;;;;0.00;0.00;;;21.70;59.30;;;;;;4172781;28;20472;-63
2022/07/28 09:36:14;;;;;;;1.02;1.02;;;21.80;59.00;;;;;;4169881;28;20051;-63
2022/07/28 09:38:41;;;;;;;0.00;0.00;;;21.80;58.60;;;;;;4168607;28;20080;-63
2022/07/28 09:41:06;;;;;;;0.00;0.00;;;21.80;58.70;;;;;;4172792;28;20130;-63
2022/07/28 09:43:35;;;;;;;0.00;0.00;;;21.80;58.70;;;;;;4187480;28;20127;-63
2022/07/28 09:46:03;;;;;;;0.00;0.00;;;21.90;58.60;;;;;;4188703;28;20051;-63
2022/07/28 09:48:26;;;;;;;0.00;0.00;;;21.90;58.30;;;;;;4188912;28;20060;-63
2022/07/28 09:50:48;;;;;;;0.00;0.00;;;21.90;58.20;;;;;;4188620;28;20048;-62
2022/07/28 09:53:26;;;;;;;0.00;0.00;;;21.90;58.20;;;;;;4170678;28;20060;-63
2022/07/28 09:55:58;;;;;;;0.00;0.00;;;22.00;58.10;;;;;;4188913;28;20809;-62
2022/07/28 09:58:19;;;;;;;0.00;0.00;;;22.00;58.10;;;;;;4189081;28;20052;-62
2022/07/28 10:00:41;;;;;;;0.30;0.30;;;22.00;57.90;;;;;;4189201;28;20059;-63
2022/07/28 10:03:04;;;;;;;1.20;0.95;;;22.00;57.80;;;;;;4187680;28;20058;-63
2022/07/28 10:05:39;;;;;;;0.00;0.00;;;22.00;57.70;;;;;;4187411;28;20052;-62
2022/07/28 10:08:02;;;;;;;0.77;0.77;;;22.10;57.50;;;;;;4187548;28;20101;-63
2022/07/28 10:10:25;;;;;;;0.00;0.00;;;22.10;57.10;;;;;;4189103;28;20075;-62
2022/07/28 10:12:47;;;;;;;0.00;0.00;;;22.10;57.40;;;;;;4192486;28;20415;-62
2022/07/28 10:17:52;;;;;;;13.75;1.85;;;22.10;57.20;;;;;;4191778;28;20170;-62
2022/07/28 10:20:15;;;;;;;0.10;0.10;;;22.20;57.00;;;;;;4191864;28;20055;-63
2022/07/28 10:22:40;;;;;;;0.00;0.00;;;22.20;57.00;;;;;;4191845;28;20102;-62
2022/07/28 10:25:08;;;;;;;0.00;0.00;;;22.20;56.70;;;;;;4192047;27;20451;-62
2022/07/28 10:27:32;;;;;;;5.93;1.38;;;22.30;56.70;;;;;;4191720;28;20062;-63
2022/07/28 10:29:58;;;;;;;0.10;0.10;;;22.30;56.50;;;;;;4190051;28;20048;-62
2022/07/28 10:32:20;;;;;;;0.00;0.00;;;22.30;56.40;;;;;;4191375;28;20143;-62
2022/07/28 10:34:48;;;;;;;0.00;0.00;;;22.30;56.10;;;;;;4192039;28;20622;-61
2022/07/28 10:37:17;;;;;;;0.32;0.32;;;22.40;56.10;;;;;;4190630;28;20048;-61
2022/07/28 10:39:42;;;;;;;0.00;0.00;;;22.40;56.00;;;;;;4191537;28;20101;-64
2022/07/28 10:42:07;;;;;;;0.10;0.10;;;22.40;55.90;;;;;;4191820;28;20114;-62
2022/07/28 10:44:32;;;;;;;0.00;0.00;;;22.40;55.80;;;;;;4191209;28;20052;-63
2022/07/28 10:46:54;;;;;;;0.00;0.00;;;22.40;56.10;;;;;;4191710;28;20083;-62
2022/07/28 10:49:17;;;;;;;0.00;0.00;;;22.50;56.10;;;;;;4189724;28;20114;-62
2022/07/28 10:51:43;;;;;;;0.00;0.00;;;22.50;56.20;;;;;;4190412;28;20142;-62
2022/07/28 10:54:27;;;;;;;0.25;0.25;;;22.50;56.30;;;;;;4191816;28;20910;-62
2022/07/28 10:56:52;;;;;;;0.88;0.85;;;22.40;56.20;;;;;;4189232;28;20052;-63
2022/07/28 10:59:51;;;;;;;0.00;0.00;;;22.40;56.10;;;;;;4191222;28;20060;-62
2022/07/28 11:02:44;;;;;;;0.38;0.38;;;22.40;56.20;;;;;;4191142;28;20650;-61
2022/07/28 11:05:26;;;;;;;0.00;0.00;;;22.40;56.30;;;;;;4175340;28;20496;-62
2022/07/28 11:07:48;;;;;;;;;;;22.40;56.20;;;;;;4163377;28;20061;-62
2022/07/28 11:10:17;;;;;;;0.00;0.00;;;22.40;56.20;;;;;;4191172;28;19928;-63
2022/07/28 11:12:47;;;;;;;0.00;0.00;;;22.40;56.50;;;;;;4190301;28;20063;-62
2022/07/28 11:15:32;;;;;;;0.00;0.00;;;22.40;56.70;;;;;;4190977;28;20052;-62
2022/07/28 11:18:02;;;;;;;0.20;0.20;;;22.30;56.60;;;;;;4190688;28;20100;-62
2022/07/28 11:21:02;;;;;;;0.00;0.00;;;22.40;57.50;;;;;;4191067;28;20500;-63
2022/07/28 11:23:53;;;;;;;0.00;0.00;;;22.40;56.80;;;;;;4190335;28;20055;-63
2022/07/28 11:26:44;;;;;;;0.00;0.00;;;22.40;56.70;;;;;;4191313;28;20163;-62
2022/07/28 11:29:19;;;;;;;;;;;22.40;56.60;;;;;;4190980;28;20050;-62
2022/07/28 11:32:07;;;;;;;0.00;0.00;;;22.30;56.10;;;;;;4190978;28;20007;-61
2022/07/28 11:35:07;;;;;;;0.13;0.13;;;22.30;55.80;;;;;;4190720;28;20131;-62
2022/07/28 11:37:29;;;;;;;0.00;0.00;;;22.30;55.80;;;;;;4166773;28;20053;-62
2022/07/28 11:39:51;;;;;;;0.13;0.13;;;22.30;55.80;;;;;;4190826;28;20083;-62
2022/07/28 11:42:29;;;;;;;0.00;0.00;;;22.30;55.80;;;;;;4172931;28;20080;-63
2022/07/28 11:44:53;;;;;;;0.00;0.00;;;22.30;55.70;;;;;;4161742;28;20073;-62
2022/07/28 11:47:20;;;;;;;0.00;0.00;;;22.30;55.70;;;;;;4174422;28;20045;-63
2022/07/28 11:49:42;;;;;;;0.00;0.00;;;22.30;55.60;;;;;;4189270;28;20040;-62
2022/07/28 11:52:16;;;;;;;0.00;0.00;;;22.30;55.60;;;;;;4190436;28;20063;-63
2022/07/28 11:54:39;;;;;;;0.00;0.00;;;22.30;55.50;;;;;;4190828;28;20052;-62
2022/07/28 11:57:03;;;;;;;0.00;0.00;;;22.30;56.00;;;;;;4190925;28;20071;-62
2022/07/28 11:59:25;;;;;;;0.00;0.00;;;22.30;55.40;;;;;;4189601;28;20430;-63
2022/07/28 12:01:52;;;;;;;0.00;0.00;;;22.40;55.50;;;;;;4191179;28;20131;-63
2022/07/28 12:04:17;;;;;;;0.00;0.00;;;22.40;55.30;;;;;;4188941;28;20048;-63
2022/07/28 12:06:41;;;;;;;0.00;0.00;;;22.40;55.30;;;;;;4191063;28;20060;-62
2022/07/28 12:09:05;;;;;;;0.03;0.03;;;22.40;54.50;;;;;;4190465;28;20048;-63
2022/07/28 12:11:31;;;;;;;1.17;0.57;;;22.50;55.00;;;;;;4190359;28;20052;-62
2022/07/28 12:13:59;;;;;;;0.00;0.00;;;22.50;54.90;;;;;;4189861;28;20483;-62
2022/07/28 12:16:27;;;;;;;0.20;0.20;;;22.50;55.00;;;;;;4190777;28;20052;-63
2022/07/28 12:18:52;;;;;;;0.00;0.00;;;22.50;55.00;;;;;;4190030;28;20048;-62
2022/07/28 12:21:16;;;;;;;0.00;0.00;;;22.50;54.80;;;;;;4189917;28;20060;-62
2022/07/28 12:23:38;;;;;;;0.00;0.00;;;22.60;54.90;;;;;;4190536;28;20052;-63
2022/07/28 12:26:07;;;;;;;0.00;0.00;;;22.60;54.70;;;;;;4188698;28;20058;-61
2022/07/28 12:28:31;;;;;;;0.03;0.03;;;22.60;54.60;;;;;;4157960;28;21059;-63
2022/07/28 12:30:53;;;;;;;0.00;0.00;;;22.60;54.20;;;;;;4190274;28;20149;-63
2022/07/28 12:33:17;;;;;;;0.00;0.00;;;22.60;53.90;;;;;;4187867;28;20468;-62
2022/07/28 12:35:39;;;;;;;0.00;0.00;;;22.70;53.90;;;;;;4190242;28;20613;-62
2022/07/28 12:38:03;;;;;;;0.00;0.00;;;22.70;53.90;;;;;;4187878;28;20464;-63
2022/07/28 12:40:29;;;;;;;1.00;0.38;;;22.70;53.90;;;;;;4189920;28;20114;-62